createdAt,value
2019-01-24T00:00:19.722Z,59.05
2019-01-24T00:02:48.112Z,66.77
2019-01-24T00:05:16.573Z,64.82
2019-01-24T00:07:45.280Z,61.40
2019-01-24T00:10:13.902Z,70.50
2019-01-24T00:12:42.318Z,61.40
2019-01-24T00:15:11.460Z,60.40
2019-01-24T00:17:40.220Z,69.32
2019-01-24T00:20:11.260Z,68.37
2019-01-24T00:22:39.681Z,66.50
2019-01-24T00:25:09.316Z,62.13
2019-01-24T00:27:37.710Z,73.42
2019-01-24T00:30:14.416Z,63.85
2019-01-24T00:32:42.882Z,68.72
2019-01-24T00:35:11.830Z,70.17
2019-01-24T00:37:40.568Z,74.17
2019-01-24T00:40:12.320Z,64.80
2019-01-24T00:42:40.821Z,66.70
2019-01-24T00:45:09.681Z,66.30
2019-01-24T00:47:38.227Z,64.32
2019-01-24T00:50:09.655Z,61.35
2019-01-24T00:52:38.052Z,66.02
2019-01-24T00:55:10.066Z,76.25
2019-01-24T00:57:38.760Z,72.82
2019-01-24T01:00:10.514Z,76.75
2019-01-24T01:02:39.131Z,73.30
2019-01-24T01:05:09.964Z,71.75
2019-01-24T01:07:39.280Z,73.35
2019-01-24T01:10:09.869Z,68.33
2019-01-24T01:12:38.268Z,70.50
2019-01-24T01:15:12.471Z,70.22
2019-01-24T01:17:40.960Z,73.87
2019-01-24T01:20:15.774Z,69.03
2019-01-24T01:22:44.531Z,65.85
2019-01-24T01:25:14.253Z,78.07
2019-01-24T01:27:42.753Z,67.10
2019-01-24T01:30:14.559Z,69.15
2019-01-24T01:32:43.030Z,70.08
2019-01-24T01:35:11.491Z,75.32
2019-01-24T01:37:40.188Z,77.25
2019-01-24T01:40:12.129Z,76.27
2019-01-24T01:42:40.578Z,74.40
2019-01-24T01:45:14.606Z,69.37
2019-01-24T01:47:43.430Z,73.20
2019-01-24T01:50:15.372Z,67.87
2019-01-24T01:52:43.839Z,63.95
2019-01-24T01:55:12.975Z,76.70
2019-01-24T01:57:41.759Z,77.00
2019-01-24T02:00:16.635Z,81.57
2019-01-24T02:02:45.353Z,77.70
2019-01-24T02:05:14.166Z,78.40
2019-01-24T02:07:42.834Z,78.00
2019-01-24T02:10:20.226Z,81.12
2019-01-24T02:12:48.867Z,72.70
2019-01-24T02:15:18.595Z,72.50
2019-01-24T02:17:47.614Z,80.47
2019-01-24T02:20:18.613Z,81.28
2019-01-24T02:22:47.525Z,73.80
2019-01-24T02:25:16.284Z,81.85
2019-01-24T02:27:44.747Z,79.35
2019-01-24T02:30:21.892Z,76.77
2019-01-24T02:32:50.386Z,66.40
2019-01-24T02:35:18.851Z,78.97
2019-01-24T02:37:47.694Z,68.57
2019-01-24T02:40:16.329Z,67.50
2019-01-24T02:42:44.729Z,73.67
2019-01-24T02:45:16.473Z,70.70
2019-01-24T02:47:45.357Z,72.82
2019-01-24T02:50:16.321Z,72.37
2019-01-24T02:52:44.726Z,66.05
2019-01-24T02:55:15.283Z,77.17
2019-01-24T02:57:43.855Z,68.67
2019-01-24T03:00:17.594Z,71.15
2019-01-24T03:02:45.983Z,71.95
2019-01-24T03:05:17.388Z,70.17
2019-01-24T03:07:46.144Z,66.17
2019-01-24T03:10:15.573Z,70.75
2019-01-24T03:12:44.029Z,77.00
2019-01-24T03:15:15.189Z,70.57
2019-01-24T03:17:43.605Z,74.67
2019-01-24T03:20:13.620Z,78.85
2019-01-24T03:22:42.039Z,70.32
2019-01-24T03:25:12.473Z,80.45
2019-01-24T03:27:40.935Z,75.65
2019-01-24T03:30:12.406Z,75.78
2019-01-24T03:32:41.247Z,73.22
2019-01-24T03:35:18.320Z,69.70
2019-01-24T03:37:46.795Z,73.60
2019-01-24T03:40:16.449Z,68.33
2019-01-24T03:42:45.022Z,71.40
2019-01-24T03:45:15.564Z,77.85
2019-01-24T03:47:44.161Z,74.62
2019-01-24T03:50:15.200Z,71.10
2019-01-24T03:52:44.175Z,71.45
2019-01-24T03:55:14.820Z,73.55
2019-01-24T03:57:43.229Z,69.35
2019-01-24T04:00:17.411Z,69.17
2019-01-24T04:02:45.883Z,66.90
2019-01-24T04:05:14.918Z,70.95
2019-01-24T04:07:43.485Z,68.50
2019-01-24T04:10:14.975Z,63.28
2019-01-24T04:12:43.379Z,74.92
2019-01-24T04:15:14.527Z,69.10
2019-01-24T04:17:42.990Z,64.53
2019-01-24T04:20:11.922Z,68.35
2019-01-24T04:22:40.566Z,68.70
2019-01-24T04:25:09.300Z,64.35
2019-01-24T04:27:37.709Z,71.87
2019-01-24T04:30:09.144Z,65.62
2019-01-24T04:32:37.554Z,65.92
2019-01-24T04:35:08.625Z,70.55
2019-01-24T04:37:37.098Z,75.15
2019-01-24T04:40:08.873Z,69.97
2019-01-24T04:42:37.870Z,70.47
2019-01-24T04:45:09.009Z,67.32
2019-01-24T04:47:37.804Z,66.50
2019-01-24T04:50:09.782Z,71.00
2019-01-24T04:52:38.181Z,73.83
2019-01-24T04:55:09.797Z,61.90
2019-01-24T04:57:38.222Z,66.87
2019-01-24T05:00:12.904Z,66.67
2019-01-24T05:02:41.590Z,66.42
2019-01-24T05:05:10.252Z,69.82
2019-01-24T05:07:38.626Z,74.55
2019-01-24T05:10:08.399Z,66.82
2019-01-24T05:12:36.801Z,74.15
2019-01-24T05:15:07.081Z,74.40
2019-01-24T05:17:35.753Z,69.80
2019-01-24T05:20:07.307Z,85.83
2019-01-24T05:22:35.789Z,75.97
2019-01-24T05:25:07.049Z,75.12
2019-01-24T05:27:35.445Z,79.35
2019-01-24T05:30:06.225Z,84.72
2019-01-24T05:32:35.142Z,69.55
2019-01-24T05:35:04.244Z,77.27
2019-01-24T05:37:32.631Z,71.30
2019-01-24T05:40:01.046Z,83.15
2019-01-24T05:42:29.441Z,73.17
2019-01-24T05:44:57.871Z,70.62
2019-01-24T05:47:26.577Z,82.92
2019-01-24T05:49:54.970Z,71.80
2019-01-24T05:52:23.358Z,82.88
2019-01-24T05:54:51.780Z,63.52
2019-01-24T05:57:20.185Z,72.67
2019-01-24T05:59:48.654Z,69.80
2019-01-24T06:02:17.045Z,73.85
2019-01-24T06:04:45.702Z,74.22
2019-01-24T06:07:14.209Z,69.45
2019-01-24T06:09:42.622Z,78.28
2019-01-24T06:12:11.767Z,66.95
2019-01-24T06:14:40.165Z,77.17
2019-01-24T06:17:08.660Z,79.77
2019-01-24T06:19:37.314Z,72.05
2019-01-24T06:22:06.145Z,71.10
2019-01-24T06:24:34.543Z,71.02
2019-01-24T06:27:02.930Z,76.85
2019-01-24T06:29:31.644Z,79.10
2019-01-24T06:32:00.253Z,77.75
2019-01-24T06:34:28.913Z,66.92
2019-01-24T06:36:57.319Z,77.82
2019-01-24T06:39:25.978Z,74.35
2019-01-24T06:41:54.768Z,73.75
2019-01-24T06:44:23.163Z,79.50
2019-01-24T06:46:51.564Z,68.78
2019-01-24T06:49:20.311Z,73.87
2019-01-24T06:51:48.819Z,70.72
2019-01-24T06:54:17.581Z,71.95
2019-01-24T06:56:46.379Z,76.35
2019-01-24T06:59:15.673Z,70.22
2019-01-24T07:01:44.071Z,76.57
2019-01-24T07:04:12.706Z,74.35
2019-01-24T07:06:41.116Z,70.80
2019-01-24T07:09:09.812Z,69.32
2019-01-24T07:11:38.453Z,66.77
2019-01-24T07:14:06.859Z,75.85
2019-01-24T07:16:35.266Z,67.78
2019-01-24T07:19:03.892Z,70.30
2019-01-24T07:21:32.522Z,72.30
2019-01-24T07:24:01.155Z,72.90
2019-01-24T07:26:29.551Z,69.67
2019-01-24T07:28:57.959Z,78.07
2019-01-24T07:31:26.349Z,77.62
2019-01-24T07:33:54.741Z,71.92
2019-01-24T07:36:23.153Z,80.22
2019-01-24T07:38:51.791Z,76.15
2019-01-24T07:41:20.199Z,65.72
2019-01-24T07:43:48.589Z,70.03
2019-01-24T07:46:16.981Z,69.15
2019-01-24T07:48:45.387Z,70.35
2019-01-24T07:51:13.795Z,73.40
2019-01-24T07:53:42.192Z,78.83
2019-01-24T07:56:10.602Z,68.47
2019-01-24T07:58:38.992Z,75.10
2019-01-24T08:01:07.709Z,68.50
2019-01-24T08:03:36.110Z,74.15
2019-01-24T08:06:09.092Z,68.85
2019-01-24T08:08:35.497Z,69.53
2019-01-24T08:11:04.202Z,73.12
2019-01-24T08:13:32.888Z,69.27
2019-01-24T08:16:01.766Z,69.75
2019-01-24T08:18:30.280Z,74.58
2019-01-24T08:20:58.712Z,73.17
2019-01-24T08:23:27.420Z,83.55
2019-01-24T08:25:55.813Z,76.35
2019-01-24T08:28:24.229Z,75.87
2019-01-24T08:30:52.633Z,84.58
2019-01-24T08:33:21.380Z,92.72
2019-01-24T08:35:50.134Z,73.37
2019-01-24T08:38:18.816Z,78.72
2019-01-24T08:40:47.387Z,79.27
2019-01-24T08:43:15.907Z,79.12
2019-01-24T08:45:44.592Z,84.72
2019-01-24T08:48:12.985Z,80.12
2019-01-24T08:50:41.736Z,82.57
2019-01-24T08:53:10.422Z,84.52
2019-01-24T08:55:39.728Z,80.28
2019-01-24T08:58:08.612Z,81.02
2019-01-24T09:00:37.023Z,74.75
2019-01-24T09:03:05.653Z,80.83
2019-01-24T09:05:34.289Z,96.60
2019-01-24T09:08:02.860Z,89.32
2019-01-24T09:10:34.022Z,93.82
2019-01-24T09:13:02.606Z,83.62
2019-01-24T09:15:31.882Z,86.57
2019-01-24T09:18:00.566Z,89.58
2019-01-24T09:20:29.249Z,87.82
2019-01-24T09:22:58.157Z,90.77
2019-01-24T09:25:26.598Z,87.42
2019-01-24T09:27:55.311Z,87.92
2019-01-24T09:30:26.240Z,90.28
2019-01-24T09:32:54.630Z,87.08
2019-01-24T09:35:24.198Z,83.85
2019-01-24T09:37:52.820Z,89.50
2019-01-24T09:40:23.040Z,89.22
2019-01-24T09:42:51.506Z,83.37
2019-01-24T09:45:28.007Z,82.80
2019-01-24T09:47:58.407Z,85.05
2019-01-24T09:50:28.260Z,80.53
2019-01-24T09:52:56.718Z,90.03
2019-01-24T09:55:25.458Z,76.62
2019-01-24T09:57:54.034Z,74.72
2019-01-24T10:00:27.901Z,89.28
2019-01-24T10:02:56.728Z,79.60
2019-01-24T10:05:25.713Z,82.72
2019-01-24T10:07:54.452Z,82.05
2019-01-24T10:10:27.734Z,78.40
2019-01-24T10:12:57.313Z,86.80
2019-01-24T10:15:25.868Z,79.67
2019-01-24T10:17:54.626Z,78.95
2019-01-24T10:20:27.343Z,74.82
2019-01-24T10:22:55.994Z,75.70
2019-01-24T10:25:32.882Z,82.33
2019-01-24T10:28:01.370Z,74.55
2019-01-24T10:30:29.835Z,74.75
2019-01-24T10:32:58.312Z,73.30
2019-01-24T10:35:26.818Z,73.65
2019-01-24T10:37:55.392Z,68.30
2019-01-24T10:40:29.057Z,67.95
2019-01-24T10:42:58.074Z,68.62
2019-01-24T10:45:26.838Z,78.85
2019-01-24T10:47:55.509Z,70.65
2019-01-24T10:50:26.536Z,70.97
2019-01-24T10:52:55.021Z,73.10
2019-01-24T10:55:25.809Z,69.82
2019-01-24T10:57:55.644Z,66.30
2019-01-24T11:00:30.298Z,73.90
2019-01-24T11:02:58.692Z,68.52
2019-01-24T11:05:27.415Z,75.10
2019-01-24T11:07:55.815Z,74.97
2019-01-24T11:10:24.590Z,66.77
2019-01-24T11:12:53.092Z,74.45
2019-01-24T11:15:24.033Z,74.10
2019-01-24T11:17:52.516Z,67.42
2019-01-24T11:20:21.302Z,77.20
2019-01-24T11:22:50.961Z,74.93
2019-01-24T11:25:24.751Z,74.97
2019-01-24T11:27:53.224Z,75.97
2019-01-24T11:30:27.207Z,75.05
2019-01-24T11:32:55.977Z,76.42
2019-01-24T11:35:30.233Z,75.40
2019-01-24T11:37:58.603Z,74.47
2019-01-24T11:40:27.139Z,71.07
2019-01-24T11:42:55.635Z,86.42
2019-01-24T11:45:33.071Z,78.05
2019-01-24T11:48:01.550Z,78.25
2019-01-24T11:50:29.954Z,79.15
2019-01-24T11:52:58.671Z,75.67
2019-01-24T11:55:27.092Z,70.70
2019-01-24T11:57:55.480Z,80.55
2019-01-24T12:00:31.335Z,78.67
2019-01-24T12:02:59.748Z,81.78
2019-01-24T12:05:28.559Z,77.87
2019-01-24T12:07:57.273Z,75.85
2019-01-24T12:10:27.813Z,85.00
2019-01-24T12:12:56.865Z,80.85
2019-01-24T12:15:27.313Z,89.65
2019-01-24T12:17:56.019Z,91.75
2019-01-24T12:20:25.470Z,94.28
2019-01-24T12:22:54.393Z,96.42
2019-01-24T12:25:24.201Z,100.30
2019-01-24T12:27:52.970Z,104.23
2019-01-24T12:30:27.630Z,102.32
2019-01-24T12:32:56.712Z,101.47
2019-01-24T12:35:25.172Z,105.07
2019-01-24T12:37:53.961Z,100.18
2019-01-24T12:40:22.749Z,116.88
2019-01-24T12:42:51.434Z,105.97
2019-01-24T12:45:28.477Z,98.52
2019-01-24T12:47:57.205Z,103.02
2019-01-24T12:50:25.618Z,102.58
2019-01-24T12:52:54.106Z,91.67
2019-01-24T12:55:22.859Z,104.32
2019-01-24T12:57:51.257Z,98.15
2019-01-24T13:00:22.004Z,111.47
2019-01-24T13:02:50.415Z,98.15
2019-01-24T13:05:18.952Z,102.55
2019-01-24T13:07:47.371Z,104.65
2019-01-24T13:10:20.413Z,92.65
2019-01-24T13:12:50.007Z,108.87
2019-01-24T13:15:23.584Z,101.12
2019-01-24T13:17:51.998Z,103.02
2019-01-24T13:20:20.565Z,107.00
2019-01-24T13:22:48.991Z,109.63
2019-01-24T13:25:19.994Z,107.65
2019-01-24T13:27:48.666Z,113.97
2019-01-24T13:30:20.098Z,107.97
2019-01-24T13:32:48.660Z,103.30
2019-01-24T13:35:17.603Z,110.77
2019-01-24T13:37:46.006Z,112.35
2019-01-24T13:40:22.928Z,100.20
2019-01-24T13:42:51.565Z,96.70
2019-01-24T13:45:22.499Z,111.60
2019-01-24T13:47:51.061Z,112.88
2019-01-24T13:50:19.684Z,113.37
2019-01-24T13:52:48.151Z,106.80
2019-01-24T13:55:16.571Z,105.27
2019-01-24T13:57:45.026Z,116.88
2019-01-24T14:00:19.204Z,106.50
2019-01-24T14:02:49.736Z,114.62
2019-01-24T14:05:19.655Z,107.92
2019-01-24T14:07:48.075Z,111.68
2019-01-24T14:10:18.046Z,116.25
2019-01-24T14:12:46.735Z,112.15
2019-01-24T14:15:19.495Z,106.55
2019-01-24T14:17:48.410Z,116.12
2019-01-24T14:20:21.630Z,111.65
2019-01-24T14:22:50.300Z,115.47
2019-01-24T14:25:20.378Z,113.08
2019-01-24T14:27:49.028Z,111.55
2019-01-24T14:30:28.140Z,112.40
2019-01-24T14:32:58.847Z,116.10
2019-01-24T14:35:27.406Z,122.35
2019-01-24T14:37:55.873Z,103.90
2019-01-24T14:40:24.269Z,110.78
2019-01-24T14:42:52.693Z,102.95
2019-01-24T14:45:27.166Z,106.92
2019-01-24T14:47:55.971Z,108.00
2019-01-24T14:50:27.154Z,98.35
2019-01-24T14:52:55.942Z,103.27
2019-01-24T14:55:24.347Z,106.50
2019-01-24T14:57:53.139Z,105.67
2019-01-24T15:00:30.431Z,97.35
2019-01-24T15:02:59.011Z,97.97
2019-01-24T15:05:27.500Z,103.87
2019-01-24T15:07:55.985Z,110.60
2019-01-24T15:10:25.134Z,107.40
2019-01-24T15:12:53.540Z,102.87
2019-01-24T15:15:23.093Z,100.90
2019-01-24T15:17:52.035Z,102.05
2019-01-24T15:20:21.072Z,108.70
2019-01-24T15:22:49.783Z,103.42
2019-01-24T15:25:20.400Z,117.37
2019-01-24T15:27:48.865Z,95.32
2019-01-24T15:30:26.284Z,102.92
2019-01-24T15:32:54.986Z,106.07
2019-01-24T15:35:23.757Z,102.87
2019-01-24T15:37:54.676Z,98.33
2019-01-24T15:40:29.844Z,110.08
2019-01-24T15:42:58.624Z,107.90
2019-01-24T15:45:27.022Z,101.55
2019-01-24T15:47:55.651Z,103.83
2019-01-24T15:50:25.065Z,105.80
2019-01-24T15:52:53.860Z,106.10
2019-01-24T15:55:22.293Z,106.12
2019-01-24T15:57:50.879Z,94.77
2019-01-24T16:00:30.423Z,101.92
2019-01-24T16:02:59.020Z,107.17
2019-01-24T16:05:27.793Z,98.97
2019-01-24T16:08:01.630Z,106.05
2019-01-24T16:10:26.973Z,106.10
2019-01-24T16:12:55.764Z,105.97
2019-01-24T16:15:30.182Z,107.95
2019-01-24T16:17:58.873Z,103.65
2019-01-24T16:20:29.095Z,99.75
2019-01-24T16:22:57.491Z,100.07
2019-01-24T16:25:28.837Z,118.90
2019-01-24T16:27:57.230Z,104.95
2019-01-24T16:30:28.050Z,104.65
2019-01-24T16:32:56.748Z,90.77
2019-01-24T16:35:25.790Z,95.70
2019-01-24T16:37:54.841Z,99.20
2019-01-24T16:40:25.558Z,94.55
2019-01-24T16:42:55.170Z,91.37
2019-01-24T16:45:26.010Z,95.77
2019-01-24T16:47:55.081Z,93.52
2019-01-24T16:50:25.205Z,93.87
2019-01-24T16:52:54.052Z,94.03
2019-01-24T16:55:22.683Z,82.92
2019-01-24T16:57:53.507Z,91.97
2019-01-24T17:00:30.496Z,97.53
2019-01-24T17:02:59.901Z,83.45
2019-01-24T17:05:29.058Z,98.40
2019-01-24T17:07:57.658Z,99.83
2019-01-24T17:10:29.029Z,94.42
2019-01-24T17:12:57.722Z,100.92
2019-01-24T17:15:27.066Z,100.50
2019-01-24T17:17:55.482Z,95.92
2019-01-24T17:20:26.796Z,98.58
2019-01-24T17:22:55.466Z,102.17
2019-01-24T17:25:25.813Z,99.00
2019-01-24T17:27:54.754Z,95.05
2019-01-24T17:30:26.302Z,97.62
2019-01-24T17:32:55.086Z,97.33
2019-01-24T17:35:23.548Z,89.47
2019-01-24T17:37:52.022Z,100.33
2019-01-24T17:40:28.883Z,94.22
2019-01-24T17:42:57.394Z,101.82
2019-01-24T17:45:26.323Z,89.42
2019-01-24T17:47:55.016Z,81.72
2019-01-24T17:50:23.976Z,85.80
2019-01-24T17:52:52.784Z,88.40
2019-01-24T17:55:30.142Z,88.75
2019-01-24T17:57:58.846Z,93.15
2019-01-24T18:00:35.326Z,96.57
2019-01-24T18:03:04.272Z,90.00
2019-01-24T18:05:32.671Z,89.87
2019-01-24T18:08:01.124Z,96.97
2019-01-24T18:10:31.078Z,94.25
2019-01-24T18:12:59.546Z,96.90
2019-01-24T18:15:37.487Z,104.85
2019-01-24T18:18:09.234Z,111.88
2019-01-24T18:20:38.768Z,91.90
2019-01-24T18:23:09.336Z,90.42
2019-01-24T18:25:38.172Z,102.50
2019-01-24T18:28:08.605Z,90.65
2019-01-24T18:30:37.019Z,99.70
2019-01-24T18:33:06.072Z,91.70
2019-01-24T18:35:34.469Z,95.12
2019-01-24T18:38:03.033Z,95.60
2019-01-24T18:40:31.886Z,99.75
2019-01-24T18:43:00.451Z,103.50
2019-01-24T18:45:35.316Z,103.92
2019-01-24T18:48:03.891Z,96.92
2019-01-24T18:50:32.366Z,97.72
2019-01-24T18:53:01.029Z,96.08
2019-01-24T18:55:29.445Z,101.00
2019-01-24T18:57:58.726Z,94.92
2019-01-24T19:00:29.187Z,88.72
2019-01-24T19:02:57.591Z,93.03
2019-01-24T19:05:25.985Z,93.90
2019-01-24T19:07:54.725Z,92.90
2019-01-24T19:10:23.137Z,99.87
2019-01-24T19:12:51.604Z,100.27
2019-01-24T19:15:22.184Z,109.65
2019-01-24T19:17:50.566Z,99.60
2019-01-24T19:20:19.146Z,100.30
2019-01-24T19:22:47.608Z,101.20
2019-01-24T19:25:18.489Z,98.17
2019-01-24T19:27:46.895Z,103.30
2019-01-24T19:30:27.131Z,97.10
2019-01-24T19:32:55.812Z,97.72
2019-01-24T19:35:24.299Z,103.15
2019-01-24T19:37:52.823Z,97.30
2019-01-24T19:40:23.819Z,90.85
2019-01-24T19:42:52.206Z,93.03
2019-01-24T19:45:27.376Z,99.45
2019-01-24T19:47:56.026Z,91.30
2019-01-24T19:50:29.887Z,86.00
2019-01-24T19:52:58.923Z,87.65
2019-01-24T19:55:27.674Z,90.83
2019-01-24T19:57:56.950Z,86.72
2019-01-24T20:00:27.597Z,94.62
2019-01-24T20:02:56.242Z,86.32
2019-01-24T20:05:24.872Z,90.90
2019-01-24T20:07:54.101Z,90.10
2019-01-24T20:10:30.089Z,100.47
2019-01-24T20:12:58.770Z,89.95
2019-01-24T20:15:29.409Z,86.90
2019-01-24T20:17:58.147Z,84.60
2019-01-24T20:20:26.920Z,91.53
2019-01-24T20:22:55.545Z,96.37
2019-01-24T20:25:29.566Z,88.07
2019-01-24T20:27:58.038Z,86.15
2019-01-24T20:30:28.822Z,93.17
2019-01-24T20:32:57.866Z,91.42
2019-01-24T20:35:32.348Z,98.97
2019-01-24T20:38:00.834Z,106.63
2019-01-24T20:40:29.435Z,91.90
2019-01-24T20:42:57.849Z,105.30
2019-01-24T20:45:26.245Z,98.95
2019-01-24T20:47:54.662Z,90.07
2019-01-24T20:50:23.050Z,95.90
2019-01-24T20:52:51.473Z,94.00
2019-01-24T20:55:19.878Z,95.32
2019-01-24T20:57:48.269Z,96.17
2019-01-24T21:00:24.574Z,92.72
2019-01-24T21:02:54.409Z,95.12
2019-01-24T21:05:24.147Z,92.95
2019-01-24T21:07:52.924Z,91.22
2019-01-24T21:10:24.193Z,98.33
2019-01-24T21:12:52.793Z,99.50
2019-01-24T21:15:22.329Z,90.45
2019-01-24T21:17:51.155Z,97.75
2019-01-24T21:20:22.200Z,92.55
2019-01-24T21:22:50.671Z,93.15
2019-01-24T21:25:21.021Z,98.07
2019-01-24T21:27:49.643Z,95.72
2019-01-24T21:30:20.837Z,96.65
2019-01-24T21:32:49.250Z,93.55
2019-01-24T21:35:18.179Z,99.47
2019-01-24T21:37:46.591Z,80.15
2019-01-24T21:40:17.868Z,98.15
2019-01-24T21:42:46.337Z,104.97
2019-01-24T21:45:20.612Z,96.37
2019-01-24T21:47:49.022Z,107.72
2019-01-24T21:50:19.755Z,103.10
2019-01-24T21:52:48.502Z,90.47
2019-01-24T21:55:18.011Z,104.85
2019-01-24T21:57:46.577Z,99.30
2019-01-24T22:00:25.943Z,107.90
2019-01-24T22:02:54.428Z,100.35
2019-01-24T22:05:24.161Z,91.55
2019-01-24T22:07:52.563Z,100.12
2019-01-24T22:10:26.758Z,101.35
2019-01-24T22:12:55.233Z,98.65
2019-01-24T22:15:26.109Z,101.00
2019-01-24T22:17:54.568Z,100.35
2019-01-24T22:20:22.978Z,99.00
2019-01-24T22:22:51.378Z,108.12
2019-01-24T22:25:25.497Z,109.45
2019-01-24T22:27:54.171Z,104.23
2019-01-24T22:30:27.044Z,104.97
2019-01-24T22:32:55.439Z,99.97
2019-01-24T22:35:24.123Z,99.92
2019-01-24T22:37:52.703Z,104.10
2019-01-24T22:40:21.272Z,105.25
2019-01-24T22:42:50.025Z,101.12
2019-01-24T22:45:21.168Z,97.53
2019-01-24T22:47:49.914Z,96.12
2019-01-24T22:50:18.387Z,92.60
2019-01-24T22:52:47.296Z,101.90
2019-01-24T22:55:16.579Z,96.08
2019-01-24T22:57:45.385Z,101.25
2019-01-24T23:00:36.387Z,97.37
2019-01-24T23:03:05.749Z,102.75
2019-01-24T23:05:34.144Z,93.80
2019-01-24T23:08:02.568Z,95.45
2019-01-24T23:10:31.329Z,97.72
2019-01-24T23:13:00.122Z,92.97
2019-01-24T23:15:28.519Z,92.00
2019-01-24T23:17:57.233Z,103.65
2019-01-24T23:20:25.677Z,96.92
2019-01-24T23:22:54.064Z,98.15
2019-01-24T23:25:22.475Z,88.40
2019-01-24T23:27:50.981Z,91.92
2019-01-24T23:30:19.465Z,96.08
2019-01-24T23:32:48.169Z,92.95
2019-01-24T23:35:17.265Z,88.90
2019-01-24T23:37:52.198Z,90.70
2019-01-24T23:40:15.999Z,89.62
2019-01-24T23:42:44.359Z,93.90
2019-01-24T23:45:13.142Z,93.65
2019-01-24T23:47:41.823Z,98.55
2019-01-24T23:50:10.612Z,86.97
2019-01-24T23:52:39.064Z,95.10
2019-01-24T23:55:08.049Z,96.05
2019-01-24T23:57:36.772Z,95.38
